createdAt,value
2023-02-25T00:01:10.207Z,83.68
2023-02-25T00:03:38.210Z,83.65
2023-02-25T00:06:08.152Z,83.46
2023-02-25T00:08:36.532Z,83.41
2023-02-25T00:11:07.098Z,83.46
2023-02-25T00:13:35.855Z,83.26
2023-02-25T00:16:04.483Z,83.20
2023-02-25T00:18:33.895Z,83.44
2023-02-25T00:21:06.130Z,83.37
2023-02-25T00:23:34.136Z,83.18
2023-02-25T00:26:03.046Z,83.42
2023-02-25T00:28:31.250Z,82.80
2023-02-25T00:30:59.134Z,82.58
2023-02-25T00:33:27.046Z,82.74
2023-02-25T00:35:56.638Z,82.56
2023-02-25T00:38:24.672Z,82.59
2023-02-25T00:40:52.494Z,82.90
2023-02-25T00:43:22.154Z,82.62
2023-02-25T00:45:50.515Z,82.59
2023-02-25T00:48:18.583Z,82.60
2023-02-25T00:50:46.357Z,82.32
2023-02-25T00:53:15.732Z,82.26
2023-02-25T00:55:44.026Z,82.25
2023-02-25T00:58:11.919Z,82.01
2023-02-25T01:00:51.377Z,81.79
2023-02-25T01:03:20.138Z,81.99
2023-02-25T01:05:49.586Z,81.67
2023-02-25T01:08:20.695Z,82.06
2023-02-25T01:10:49.308Z,81.91
2023-02-25T01:13:17.621Z,82.06
2023-02-25T01:15:45.883Z,81.61
2023-02-25T01:18:13.865Z,82.12
2023-02-25T01:20:41.939Z,82.10
2023-02-25T01:23:09.777Z,82.25
2023-02-25T01:25:42.027Z,82.82
2023-02-25T01:28:09.978Z,82.68
2023-02-25T01:30:39.969Z,82.66
2023-02-25T01:33:07.839Z,82.68
2023-02-25T01:35:37.221Z,83.31
2023-02-25T01:38:05.357Z,83.21
2023-02-25T01:40:33.288Z,82.95
2023-02-25T01:43:02.488Z,83.42
2023-02-25T01:45:32.600Z,83.50
2023-02-25T01:48:11.900Z,83.39
2023-02-25T01:50:44.112Z,82.67
2023-02-25T01:53:13.789Z,83.22
2023-02-25T01:55:42.693Z,82.55
2023-02-25T01:58:13.474Z,83.18
2023-02-25T02:00:42.065Z,82.68
2023-02-25T02:03:16.363Z,82.40
2023-02-25T02:05:52.682Z,82.02
2023-02-25T02:08:20.779Z,82.24
2023-02-25T02:10:48.803Z,82.12
2023-02-25T02:13:18.546Z,82.69
2023-02-25T02:15:53.019Z,82.04
2023-02-25T02:18:21.623Z,81.92
2023-02-25T02:20:59.830Z,81.82
2023-02-25T02:23:53.939Z,82.55
2023-02-25T02:26:47.770Z,82.61
2023-02-25T02:30:12.651Z,82.66
2023-02-25T02:32:44.620Z,82.93
2023-02-25T02:35:20.500Z,82.62
2023-02-25T02:37:59.130Z,82.79
2023-02-25T02:40:46.256Z,82.79
2023-02-25T02:43:23.077Z,82.87
2023-02-25T02:46:00.930Z,82.74
2023-02-25T02:48:35.306Z,82.90
2023-02-25T02:51:05.099Z,82.74
2023-02-25T02:53:36.329Z,82.29
2023-02-25T02:56:07.223Z,82.73
2023-02-25T02:58:38.330Z,82.07
2023-02-25T03:01:09.879Z,81.98
2023-02-25T03:03:41.799Z,82.62
2023-02-25T03:06:13.970Z,82.72
2023-02-25T03:08:45.896Z,82.49
2023-02-25T03:11:14.513Z,82.47
2023-02-25T03:13:44.844Z,82.00
2023-02-25T03:16:16.248Z,82.10
2023-02-25T03:18:49.066Z,82.62
2023-02-25T03:21:21.655Z,82.85
2023-02-25T03:23:52.921Z,82.03
2023-02-25T03:26:24.694Z,81.77
2023-02-25T03:28:53.456Z,81.83
2023-02-25T03:31:26.016Z,81.44
2023-02-25T03:33:57.891Z,81.26
2023-02-25T03:36:28.744Z,81.73
2023-02-25T03:39:00.698Z,81.15
2023-02-25T03:41:35.689Z,80.94
2023-02-25T03:44:07.152Z,81.37
2023-02-25T03:46:36.257Z,80.90
2023-02-25T03:49:08.755Z,81.06
2023-02-25T03:51:41.686Z,81.22
2023-02-25T03:54:09.540Z,81.65
2023-02-25T03:56:44.777Z,81.11
2023-02-25T03:59:13.224Z,81.36
2023-02-25T04:01:42.787Z,81.76
2023-02-25T04:04:12.397Z,81.67
2023-02-25T04:06:40.685Z,81.05
2023-02-25T04:09:08.872Z,81.40
2023-02-25T04:11:36.787Z,81.36
2023-02-25T04:14:04.770Z,81.09
2023-02-25T04:16:32.625Z,81.62
2023-02-25T04:19:00.712Z,81.61
2023-02-25T04:21:32.434Z,81.73
2023-02-25T04:24:00.849Z,81.76
2023-02-25T04:26:28.802Z,81.64
2023-02-25T04:28:56.913Z,81.62
2023-02-25T04:31:24.786Z,81.55
2023-02-25T04:33:52.615Z,80.80
2023-02-25T04:36:25.750Z,81.70
2023-02-25T04:38:55.672Z,80.89
2023-02-25T04:41:24.065Z,81.38
2023-02-25T04:43:51.929Z,82.02
2023-02-25T04:46:20.588Z,81.80
2023-02-25T04:48:48.471Z,81.81
2023-02-25T04:51:17.577Z,81.79
2023-02-25T04:53:47.002Z,81.82
2023-02-25T04:56:16.899Z,82.30
2023-02-25T04:58:44.843Z,81.65
2023-02-25T05:01:13.240Z,82.31
2023-02-25T05:03:41.682Z,81.68
2023-02-25T05:06:09.818Z,81.77
2023-02-25T05:08:37.913Z,81.99
2023-02-25T05:11:06.608Z,81.79
2023-02-25T05:13:35.782Z,82.25
2023-02-25T05:16:08.126Z,82.53
2023-02-25T05:18:38.136Z,82.08
2023-02-25T05:21:07.335Z,82.41
2023-02-25T05:23:35.117Z,82.37
2023-02-25T05:26:02.864Z,81.68
2023-02-25T05:28:30.667Z,81.76
2023-02-25T05:31:00.023Z,81.80
2023-02-25T05:33:28.221Z,82.25
2023-02-25T05:35:55.986Z,82.71
2023-02-25T05:38:23.824Z,82.78
2023-02-25T05:40:51.575Z,82.73
2023-02-25T05:43:19.381Z,82.10
2023-02-25T05:45:54.036Z,82.71
2023-02-25T05:48:23.825Z,83.00
2023-02-25T05:50:52.147Z,82.86
2023-02-25T05:53:20.404Z,82.95
2023-02-25T05:55:48.188Z,83.07
2023-02-25T05:58:15.976Z,82.72
2023-02-25T06:00:43.770Z,82.92
2023-02-25T06:03:11.760Z,82.50
2023-02-25T06:05:42.647Z,82.56
2023-02-25T06:08:13.121Z,83.15
2023-02-25T06:10:41.266Z,83.12
2023-02-25T06:13:10.555Z,83.23
2023-02-25T06:15:38.960Z,82.49
2023-02-25T06:18:07.292Z,82.40
2023-02-25T06:20:35.949Z,82.97
2023-02-25T06:23:05.166Z,83.79
2023-02-25T06:25:33.085Z,83.81
2023-02-25T06:28:01.923Z,83.63
2023-02-25T06:30:30.776Z,83.25
2023-02-25T06:32:59.135Z,83.37
2023-02-25T06:35:27.207Z,83.76
2023-02-25T06:37:56.870Z,83.25
2023-02-25T06:40:26.501Z,83.34
2023-02-25T06:42:54.338Z,83.79
2023-02-25T06:45:22.168Z,83.56
2023-02-25T06:47:50.321Z,84.56
2023-02-25T06:50:18.667Z,84.54
2023-02-25T06:52:46.470Z,83.54
2023-02-25T06:55:14.280Z,84.42
2023-02-25T06:57:43.746Z,83.67
2023-02-25T07:00:13.104Z,83.80
2023-02-25T07:02:40.926Z,84.06
2023-02-25T07:05:09.523Z,84.25
2023-02-25T07:07:37.283Z,83.57
2023-02-25T07:10:06.986Z,83.72
2023-02-25T07:12:34.877Z,83.33
2023-02-25T07:15:04.318Z,82.66
2023-02-25T07:17:32.271Z,82.70
2023-02-25T07:20:00.124Z,82.66
2023-02-25T07:22:27.976Z,82.22
2023-02-25T07:24:55.811Z,82.04
2023-02-25T07:27:24.932Z,82.04
2023-02-25T07:29:52.968Z,82.78
2023-02-25T07:32:22.241Z,82.44
2023-02-25T07:34:50.371Z,82.95
2023-02-25T07:37:18.103Z,82.97
2023-02-25T07:39:47.683Z,83.12
2023-02-25T07:42:15.571Z,84.00
2023-02-25T07:44:43.360Z,84.21
2023-02-25T07:47:11.268Z,83.93
2023-02-25T07:49:40.475Z,84.13
2023-02-25T07:52:08.399Z,84.36
2023-02-25T07:54:36.352Z,84.58
2023-02-25T07:57:04.965Z,84.36
2023-02-25T07:59:34.100Z,83.97
2023-02-25T08:02:01.967Z,84.06
2023-02-25T08:04:30.105Z,83.98
2023-02-25T08:06:59.266Z,83.71
2023-02-25T08:09:27.066Z,83.13
2023-02-25T08:11:55.220Z,83.67
2023-02-25T08:14:25.953Z,83.01
2023-02-25T08:16:57.161Z,82.71
2023-02-25T08:19:25.183Z,83.00
2023-02-25T08:21:54.845Z,82.71
2023-02-25T08:24:24.172Z,82.13
2023-02-25T08:26:52.151Z,82.21
2023-02-25T08:29:20.151Z,81.87
2023-02-25T08:31:49.104Z,81.82
2023-02-25T08:34:17.007Z,81.36
2023-02-25T08:36:44.779Z,80.86
2023-02-25T08:39:12.865Z,80.86
2023-02-25T08:41:42.954Z,80.51
2023-02-25T08:44:10.971Z,80.51
2023-02-25T08:46:38.847Z,80.39
2023-02-25T08:49:07.084Z,80.20
2023-02-25T08:51:35.278Z,80.28
2023-02-25T08:54:05.054Z,79.72
2023-02-25T08:56:32.904Z,79.60
2023-02-25T08:59:02.342Z,79.18
2023-02-25T09:01:44.538Z,78.89
2023-02-25T09:04:12.892Z,79.02
2023-02-25T09:06:40.763Z,78.43
2023-02-25T09:09:08.565Z,78.07
2023-02-25T09:11:36.815Z,77.57
2023-02-25T09:14:05.915Z,77.41
2023-02-25T09:16:34.105Z,76.56
2023-02-25T09:19:01.929Z,77.12
2023-02-25T09:21:29.936Z,76.74
2023-02-25T09:23:58.365Z,76.65
2023-02-25T09:26:26.358Z,76.40
2023-02-25T09:28:54.232Z,76.06
2023-02-25T09:31:23.789Z,76.22
2023-02-25T09:33:52.129Z,75.86
2023-02-25T09:36:21.427Z,75.44
2023-02-25T09:38:50.356Z,75.17
2023-02-25T09:41:25.679Z,75.53
2023-02-25T09:44:02.133Z,74.66
2023-02-25T09:46:31.929Z,73.40
2023-02-25T09:49:02.747Z,73.21
2023-02-25T09:51:35.480Z,72.42
2023-02-25T09:54:12.092Z,72.95
2023-02-25T09:56:40.239Z,71.21
2023-02-25T09:59:14.377Z,70.27
2023-02-25T10:01:47.279Z,70.17
2023-02-25T10:04:18.618Z,68.87
2023-02-25T10:06:49.116Z,68.05
2023-02-25T10:09:23.108Z,67.50
2023-02-25T10:11:54.061Z,67.38
2023-02-25T10:14:32.641Z,64.96
2023-02-25T10:17:07.101Z,63.95
2023-02-25T10:19:51.981Z,62.50
2023-02-25T10:22:27.685Z,62.31
2023-02-25T10:24:59.391Z,63.00
2023-02-25T10:27:31.186Z,61.93
2023-02-25T10:30:04.818Z,59.47
2023-02-25T10:32:36.220Z,58.94
2023-02-25T10:35:17.671Z,59.23
2023-02-25T10:37:45.806Z,60.06
2023-02-25T10:40:17.510Z,60.02
2023-02-25T10:42:48.372Z,58.78
2023-02-25T10:45:21.744Z,59.07
2023-02-25T10:47:56.253Z,59.64
2023-02-25T10:50:42.975Z,58.66
2023-02-25T10:53:15.911Z,57.65
2023-02-25T10:55:55.232Z,56.22
2023-02-25T10:58:27.260Z,55.99
2023-02-25T11:00:57.656Z,56.49
2023-02-25T11:03:27.832Z,57.65
2023-02-25T11:06:09.823Z,57.32
2023-02-25T11:08:38.052Z,58.83
2023-02-25T11:11:07.573Z,59.19
2023-02-25T11:13:37.409Z,58.92
2023-02-25T11:16:08.025Z,59.23
2023-02-25T11:18:38.240Z,59.06
2023-02-25T11:21:08.195Z,60.30
2023-02-25T11:23:38.083Z,59.87
2023-02-25T11:26:07.822Z,59.58
2023-02-25T11:28:40.011Z,59.08
2023-02-25T11:31:14.346Z,58.30
2023-02-25T11:33:45.356Z,56.85
2023-02-25T11:36:13.781Z,56.46
2023-02-25T11:38:42.927Z,56.21
2023-02-25T11:41:18.687Z,56.79
2023-02-25T11:43:46.458Z,56.41
2023-02-25T11:46:18.119Z,55.95
2023-02-25T11:48:51.306Z,56.70
2023-02-25T11:51:26.347Z,57.73
2023-02-25T11:54:19.946Z,61.17
2023-02-25T11:56:50.516Z,65.27
2023-02-25T11:59:30.252Z,68.15
2023-02-25T12:02:21.299Z,70.49
2023-02-25T12:05:05.519Z,72.47
2023-02-25T12:08:12.541Z,73.35
2023-02-25T12:11:09.814Z,73.80
2023-02-25T12:14:00.516Z,73.38
2023-02-25T12:16:51.250Z,73.00
2023-02-25T12:19:55.272Z,71.70
2023-02-25T12:22:59.620Z,69.99
2023-02-25T12:25:33.863Z,67.73
2023-02-25T12:28:11.519Z,67.70
2023-02-25T12:31:08.062Z,66.01
2023-02-25T12:33:54.346Z,67.08
2023-02-25T12:36:41.030Z,68.13
2023-02-25T12:39:19.186Z,68.13
2023-02-25T12:41:49.906Z,69.01
2023-02-25T12:44:37.041Z,68.37
2023-02-25T12:47:16.690Z,68.83
2023-02-25T12:50:01.445Z,68.76
2023-02-25T12:52:38.059Z,68.71
2023-02-25T12:55:17.228Z,68.49
2023-02-25T12:57:52.892Z,67.52
2023-02-25T13:00:33.923Z,68.09
2023-02-25T13:03:21.192Z,67.97
2023-02-25T13:06:22.450Z,68.63
2023-02-25T13:09:02.297Z,65.85
2023-02-25T13:11:48.219Z,65.42
2023-02-25T13:14:38.036Z,64.11
2023-02-25T13:17:29.156Z,61.21
2023-02-25T13:20:28.174Z,60.20
2023-02-25T13:23:08.553Z,60.39
2023-02-25T13:25:47.344Z,60.94
2023-02-25T13:28:42.894Z,63.38
2023-02-25T13:31:17.466Z,64.48
2023-02-25T13:33:51.392Z,65.99
2023-02-25T13:36:45.114Z,66.87
2023-02-25T13:39:24.079Z,65.37
2023-02-25T13:42:04.451Z,65.65
2023-02-25T13:44:52.257Z,65.55
2023-02-25T13:47:34.397Z,65.08
2023-02-25T13:50:29.898Z,64.29
2023-02-25T13:53:09.846Z,62.73
2023-02-25T13:56:01.955Z,61.49
2023-02-25T13:58:52.452Z,61.11
2023-02-25T14:01:32.138Z,59.59
2023-02-25T14:04:22.639Z,57.20
2023-02-25T14:07:22.950Z,56.47
2023-02-25T14:10:00.762Z,54.98
2023-02-25T14:12:43.939Z,51.60
2023-02-25T14:15:22.560Z,52.22
2023-02-25T14:18:03.892Z,52.32
2023-02-25T14:20:40.660Z,52.04
2023-02-25T14:23:13.177Z,52.06
2023-02-25T14:25:51.960Z,51.05
2023-02-25T14:28:27.289Z,51.05
2023-02-25T14:31:03.336Z,50.61
2023-02-25T14:33:40.758Z,50.49
2023-02-25T14:36:20.744Z,51.13
2023-02-25T14:39:06.634Z,49.90
2023-02-25T14:41:47.383Z,49.72
2023-02-25T14:44:20.909Z,49.17
2023-02-25T14:46:52.816Z,48.05
2023-02-25T14:49:22.341Z,48.62
2023-02-25T14:52:13.093Z,45.91
2023-02-25T14:55:18.868Z,45.33
2023-02-25T14:58:13.928Z,44.85
2023-02-25T15:00:58.389Z,45.38
2023-02-25T15:03:53.475Z,44.77
2023-02-25T15:06:31.228Z,44.30
2023-02-25T15:09:24.920Z,47.11
2023-02-25T15:12:11.338Z,48.39
2023-02-25T15:15:31.642Z,47.46
2023-02-25T15:18:38.015Z,44.73
2023-02-25T15:21:33.993Z,43.84
2023-02-25T15:24:03.042Z,40.79
2023-02-25T15:26:44.971Z,39.06
2023-02-25T15:29:57.482Z,39.09
2023-02-25T15:32:27.973Z,39.23
2023-02-25T15:34:58.546Z,40.08
2023-02-25T15:37:30.230Z,39.54
2023-02-25T15:39:59.070Z,39.20
2023-02-25T15:42:47.972Z,38.39
2023-02-25T15:45:36.906Z,38.07
2023-02-25T15:48:31.583Z,39.30
2023-02-25T15:51:01.330Z,39.34
2023-02-25T15:53:48.336Z,38.51
2023-02-25T15:56:47.697Z,37.90
2023-02-25T15:59:44.647Z,38.46
2023-02-25T16:02:35.436Z,39.68
2023-02-25T16:05:05.418Z,38.17
2023-02-25T16:07:36.170Z,38.79
2023-02-25T16:10:07.386Z,38.98
2023-02-25T16:12:35.452Z,38.95
2023-02-25T16:15:05.635Z,38.52
2023-02-25T16:17:35.415Z,39.13
2023-02-25T16:20:11.966Z,39.32
2023-02-25T16:22:41.591Z,38.42
2023-02-25T16:25:15.229Z,39.67
2023-02-25T16:27:53.441Z,39.56
2023-02-25T16:30:27.095Z,39.79
2023-02-25T16:33:01.053Z,40.31
2023-02-25T16:35:32.147Z,39.97
2023-02-25T16:38:10.885Z,41.08
2023-02-25T16:40:40.451Z,43.32
2023-02-25T16:43:13.113Z,44.97
2023-02-25T16:45:44.216Z,45.42
2023-02-25T16:48:18.671Z,46.31
2023-02-25T16:50:47.761Z,47.66
2023-02-25T16:53:19.264Z,47.94
2023-02-25T16:55:47.049Z,49.10
2023-02-25T16:58:22.768Z,49.46
2023-02-25T17:00:54.063Z,50.02
2023-02-25T17:03:22.741Z,50.50
2023-02-25T17:06:04.797Z,50.03
2023-02-25T17:08:32.572Z,50.25
2023-02-25T17:11:01.267Z,49.93
2023-02-25T17:13:30.804Z,50.02
2023-02-25T17:16:03.946Z,50.22
2023-02-25T17:18:33.453Z,50.07
2023-02-25T17:21:04.255Z,50.98
2023-02-25T17:23:33.002Z,51.11
2023-02-25T17:26:00.966Z,50.57
2023-02-25T17:28:30.858Z,51.24
2023-02-25T17:31:09.657Z,51.38
2023-02-25T17:33:48.319Z,51.50
2023-02-25T17:36:17.928Z,51.23
2023-02-25T17:38:46.463Z,52.34
2023-02-25T17:41:16.947Z,52.77
2023-02-25T17:43:44.901Z,52.30
2023-02-25T17:46:27.124Z,52.79
2023-02-25T17:48:58.047Z,52.25
2023-02-25T17:51:33.529Z,52.94
2023-02-25T17:54:05.756Z,53.53
2023-02-25T17:56:34.653Z,53.70
2023-02-25T17:59:05.882Z,53.15
2023-02-25T18:01:48.822Z,53.30
2023-02-25T18:04:24.628Z,54.10
2023-02-25T18:06:53.320Z,54.57
2023-02-25T18:09:39.832Z,54.31
2023-02-25T18:12:10.066Z,54.79
2023-02-25T18:14:39.321Z,54.05
2023-02-25T18:17:23.145Z,53.70
2023-02-25T18:19:51.087Z,53.33
2023-02-25T18:22:33.589Z,53.67
2023-02-25T18:25:03.751Z,54.33
2023-02-25T18:27:32.876Z,53.28
2023-02-25T18:30:18.207Z,52.31
2023-02-25T18:32:47.939Z,53.17
2023-02-25T18:35:16.592Z,53.63
2023-02-25T18:37:45.255Z,52.98
2023-02-25T18:40:16.868Z,53.46
2023-02-25T18:42:45.068Z,54.16
2023-02-25T18:45:17.320Z,54.62
2023-02-25T18:47:45.329Z,55.08
2023-02-25T18:50:14.886Z,55.36
2023-02-25T18:52:43.243Z,55.23
2023-02-25T18:55:18.483Z,55.32
2023-02-25T18:57:46.335Z,55.10
2023-02-25T19:00:15.679Z,54.84
2023-02-25T19:02:47.736Z,54.84
2023-02-25T19:05:17.705Z,53.44
2023-02-25T19:07:46.078Z,53.45
2023-02-25T19:10:17.247Z,53.41
2023-02-25T19:12:45.562Z,53.58
2023-02-25T19:15:15.993Z,53.40
2023-02-25T19:17:43.815Z,54.54
2023-02-25T19:20:13.722Z,53.68
2023-02-25T19:22:43.957Z,54.30
2023-02-25T19:25:18.898Z,53.87
2023-02-25T19:27:46.699Z,54.12
2023-02-25T19:30:16.907Z,55.11
2023-02-25T19:32:44.780Z,54.81
2023-02-25T19:35:12.926Z,54.74
2023-02-25T19:37:43.409Z,55.00
2023-02-25T19:40:13.393Z,55.60
2023-02-25T19:42:43.259Z,55.45
2023-02-25T19:45:13.036Z,55.35
2023-02-25T19:47:40.843Z,56.32
2023-02-25T19:50:11.676Z,55.38
2023-02-25T19:52:39.818Z,55.65
2023-02-25T19:55:11.436Z,55.98
2023-02-25T19:57:40.017Z,56.47
2023-02-25T20:00:10.103Z,56.14
2023-02-25T20:02:37.890Z,59.50
2023-02-25T20:05:06.706Z,57.55
2023-02-25T20:07:34.465Z,56.24
2023-02-25T20:10:02.455Z,55.67
2023-02-25T20:12:31.600Z,56.74
2023-02-25T20:14:59.411Z,56.96
2023-02-25T20:17:27.178Z,56.65
2023-02-25T20:19:55.006Z,56.20
2023-02-25T20:22:23.869Z,56.77
2023-02-25T20:24:51.860Z,57.14
2023-02-25T20:27:19.725Z,55.97
2023-02-25T20:29:49.084Z,57.01
2023-02-25T20:32:17.126Z,56.76
2023-02-25T20:34:45.260Z,56.35
2023-02-25T20:37:16.230Z,56.37
2023-02-25T20:39:53.391Z,56.17
2023-02-25T20:42:23.312Z,56.96
2023-02-25T20:44:53.878Z,57.27
2023-02-25T20:47:24.394Z,57.21
2023-02-25T20:49:53.155Z,57.37
2023-02-25T20:52:21.323Z,56.69
2023-02-25T20:54:49.999Z,57.83
2023-02-25T20:57:20.656Z,57.62
2023-02-25T20:59:49.249Z,57.00
2023-02-25T21:02:18.568Z,58.75
2023-02-25T21:04:46.621Z,58.79
2023-02-25T21:07:15.093Z,57.29
2023-02-25T21:09:42.986Z,58.85
2023-02-25T21:12:11.008Z,57.77
2023-02-25T21:14:38.887Z,58.08
2023-02-25T21:17:09.546Z,59.21
2023-02-25T21:19:39.318Z,58.37
2023-02-25T21:22:07.237Z,58.38
2023-02-25T21:24:36.226Z,58.94
2023-02-25T21:27:04.780Z,58.85
2023-02-25T21:29:33.263Z,59.69
2023-02-25T21:32:01.101Z,59.40
2023-02-25T21:34:29.064Z,59.98
2023-02-25T21:36:59.341Z,60.11
2023-02-25T21:39:27.357Z,59.86
2023-02-25T21:41:55.748Z,60.53
2023-02-25T21:44:23.590Z,60.60
2023-02-25T21:46:51.475Z,60.98
2023-02-25T21:49:19.477Z,60.44
2023-02-25T21:51:47.343Z,61.47
2023-02-25T21:54:17.225Z,62.09
2023-02-25T21:56:45.036Z,61.06
2023-02-25T21:59:12.898Z,61.79
2023-02-25T22:01:41.678Z,62.06
2023-02-25T22:04:09.845Z,62.15
2023-02-25T22:06:37.859Z,62.21
2023-02-25T22:09:06.991Z,62.32
2023-02-25T22:11:37.642Z,62.38
2023-02-25T22:14:07.360Z,62.17
2023-02-25T22:16:35.872Z,62.89
2023-02-25T22:19:03.679Z,63.35
2023-02-25T22:21:32.739Z,62.95
2023-02-25T22:24:02.462Z,62.92
2023-02-25T22:26:32.647Z,63.03
2023-02-25T22:29:04.228Z,62.68
2023-02-25T22:31:32.609Z,63.19
2023-02-25T22:34:00.925Z,62.61
2023-02-25T22:36:28.824Z,63.42
2023-02-25T22:38:56.874Z,63.36
2023-02-25T22:41:26.870Z,63.50
2023-02-25T22:43:54.951Z,63.66
2023-02-25T22:46:26.567Z,63.43
2023-02-25T22:48:55.165Z,63.87
2023-02-25T22:51:25.328Z,63.87
2023-02-25T22:53:53.651Z,63.53
2023-02-25T22:56:21.871Z,63.47
2023-02-25T22:58:49.786Z,64.45
2023-02-25T23:01:19.855Z,63.83
2023-02-25T23:03:49.650Z,64.52
2023-02-25T23:06:19.461Z,64.65
2023-02-25T23:08:47.267Z,64.52
2023-02-25T23:11:16.465Z,63.95
2023-02-25T23:13:47.475Z,64.87
2023-02-25T23:16:16.201Z,64.77
2023-02-25T23:18:44.071Z,64.26
2023-02-25T23:21:19.025Z,64.64
2023-02-25T23:23:48.264Z,64.87
2023-02-25T23:26:17.405Z,64.57
2023-02-25T23:28:45.771Z,64.63
2023-02-25T23:31:19.895Z,65.06
2023-02-25T23:33:47.740Z,64.64
2023-02-25T23:36:16.968Z,64.96
2023-02-25T23:38:44.751Z,65.16
2023-02-25T23:41:12.576Z,64.87
2023-02-25T23:43:40.572Z,65.01
2023-02-25T23:46:08.546Z,65.13
2023-02-25T23:48:36.364Z,65.34
2023-02-25T23:51:08.662Z,65.42
2023-02-25T23:53:37.812Z,65.12
2023-02-25T23:56:06.995Z,65.41
2023-02-25T23:58:34.860Z,65.41
